Time;durP1;ratioP1;P1;durP2;ratioP2;P2;SDS_P1;SDS_P2;PMS_P1;PMS_P2;Temp;Humidity;BMP_temperature;BMP_pressure;BME280_temperature;BME280_humidity;BME280_pressure;Samples;Min_cycle;Max_cycle;Signal;HPM_P1;HPM_P2
2023/01/07 00:02:06;;;;;;;5.18;2.60;;;;;;;11.95;73.24;101605.09;5104407;28;20051;-68
2023/01/07 00:04:34;;;;;;;3.50;2.40;;;;;;;11.95;72.96;101603.22;5108304;28;20095;-68
2023/01/07 00:07:03;;;;;;;4.30;2.83;;;;;;;11.94;73.13;101598.88;5097426;28;20075;-68
2023/01/07 00:09:31;;;;;;;4.88;2.20;;;;;;;11.93;72.92;101593.72;5102150;28;20103;-69
2023/01/07 00:11:59;;;;;;;4.20;2.63;;;;;;;11.93;73.33;101594.53;5103858;28;20040;-68
2023/01/07 00:14:27;;;;;;;5.32;3.25;;;;;;;11.92;73.30;101592.06;5104136;28;20177;-67
2023/01/07 00:16:55;;;;;;;5.25;2.78;;;;;;;11.91;73.12;101599.31;5103613;28;20135;-68
2023/01/07 00:19:23;;;;;;;4.32;2.67;;;;;;;11.91;73.12;101588.53;5103142;28;20048;-66
2023/01/07 00:21:51;;;;;;;5.53;2.78;;;;;;;11.90;73.05;101591.44;5099893;28;20076;-68
2023/01/07 00:24:20;;;;;;;4.75;2.65;;;;;;;11.89;73.12;101585.22;5094886;28;20048;-68
2023/01/07 00:26:48;;;;;;;3.50;2.58;;;;;;;11.88;73.22;101591.66;5114785;28;20039;-68
2023/01/07 00:29:17;;;;;;;4.30;2.67;;;;;;;11.86;73.00;101587.53;5106644;28;20513;-64
2023/01/07 00:31:45;;;;;;;4.90;2.65;;;;;;;11.87;73.16;101591.88;5100681;28;20431;-62
2023/01/07 00:34:13;;;;;;;5.82;2.90;;;;;;;11.85;73.33;101584.00;5103438;28;20074;-68
2023/01/07 00:36:42;;;;;;;5.40;3.00;;;;;;;11.86;73.26;101582.97;5105306;28;20095;-65
2023/01/07 00:39:13;;;;;;;4.15;2.55;;;;;;;11.85;73.40;101580.47;5103902;28;20070;-68
2023/01/07 00:42:52;;;;;;;4.38;2.10;;;;;;;11.84;73.27;101574.25;5101147;28;20066;-68
2023/01/07 00:44:33;;;;;;;5.32;2.63;;;;;;;11.83;73.18;101566.41;5098696;28;20629;-68
2023/01/07 00:47:01;;;;;;;3.15;2.20;;;;;;;11.84;73.26;101568.06;5107501;28;20048;-68
2023/01/07 00:49:29;;;;;;;4.03;2.10;;;;;;;11.83;73.17;101569.91;5099410;28;20047;-68
2023/01/07 00:51:57;;;;;;;5.35;2.45;;;;;;;11.83;73.04;101563.69;5104658;28;20093;-68
2023/01/07 00:54:25;;;;;;;4.20;2.45;;;;;;;11.82;73.11;101562.06;5103898;28;20040;-68
2023/01/07 00:56:54;;;;;;;3.40;2.28;;;;;;;11.79;72.92;101549.84;5106990;28;20135;-68
2023/01/07 00:59:22;;;;;;;4.85;2.30;;;;;;;11.81;72.91;101550.44;5109354;28;20084;-68
2023/01/07 01:01:50;;;;;;;5.18;2.40;;;;;;;11.81;72.93;101552.31;5108762;28;20043;-68
2023/01/07 01:04:18;;;;;;;5.95;2.97;;;;;;;11.80;73.04;101548.78;5103865;28;20050;-68
2023/01/07 01:06:46;;;;;;;3.70;2.33;;;;;;;11.80;73.13;101547.97;5097739;28;20536;-68
2023/01/07 01:09:14;;;;;;;4.55;2.35;;;;;;;11.79;72.82;101540.94;5109000;28;20071;-69
2023/01/07 01:11:42;;;;;;;6.05;2.45;;;;;;;11.79;73.01;101549.00;5102568;28;20079;-67
2023/01/07 01:14:12;;;;;;;3.88;2.20;;;;;;;11.79;73.08;101540.94;5105249;28;20047;-68
2023/01/07 01:16:39;;;;;;;3.55;2.22;;;;;;;11.76;72.94;101539.47;5113281;28;20046;-68
2023/01/07 01:19:07;;;;;;;4.28;2.50;;;;;;;11.75;72.95;101527.03;5101700;28;20132;-67
2023/01/07 01:21:35;;;;;;;4.20;2.60;;;;;;;11.76;72.92;101534.06;5102541;28;20048;-68
2023/01/07 01:24:03;;;;;;;6.68;2.80;;;;;;;11.76;73.02;101528.69;5101457;28;20071;-67
2023/01/07 01:26:31;;;;;;;3.72;2.47;;;;;;;11.76;72.81;101528.69;5106226;28;20040;-67
2023/01/07 01:28:59;;;;;;;4.70;2.25;;;;;;;11.75;73.10;101529.72;5108137;28;20044;-69
2023/01/07 01:31:28;;;;;;;5.78;2.40;;;;;;;11.76;73.00;101517.09;5102819;28;20063;-68
2023/01/07 01:33:58;;;;;;;3.80;2.50;;;;;;;11.75;72.84;101513.56;5107771;28;20043;-67
2023/01/07 01:36:26;;;;;;;3.88;2.60;;;;;;;11.76;73.00;101514.41;5106657;28;20050;-67
2023/01/07 01:38:56;;;;;;;5.10;2.88;;;;;;;11.66;73.16;101494.13;5112131;28;20048;-68
2023/01/07 01:41:24;;;;;;;4.30;2.72;;;;;;;11.74;72.94;101507.34;5107444;28;20179;-68
2023/01/07 01:43:51;;;;;;;4.35;2.40;;;;;;;11.72;72.86;101500.53;5099827;28;20066;-69
2023/01/07 01:46:27;;;;;;;3.92;2.80;;;;;;;11.73;73.11;101508.41;5095365;28;20119;-68
2023/01/07 01:49:02;;;;;;;4.85;2.60;;;;;;;11.74;72.90;101511.91;5100733;28;20086;-67
2023/01/07 01:51:36;;;;;;;3.55;2.35;;;;;;;11.73;72.87;101518.34;5100135;28;20482;-68
2023/01/07 01:54:07;;;;;;;4.88;3.00;;;;;;;11.70;73.12;101508.81;5088776;28;20123;-67
2023/01/07 01:56:38;;;;;;;7.38;2.58;;;;;;;11.69;72.92;101504.47;5103206;28;20075;-67
2023/01/07 01:59:10;;;;;;;3.83;2.08;;;;;;;11.71;73.04;101506.94;5095954;28;20048;-68
2023/01/07 02:01:38;;;;;;;4.10;2.40;;;;;;;11.69;72.83;101509.84;5109083;28;20047;-68
2023/01/07 02:04:11;;;;;;;5.32;2.58;;;;;;;11.69;72.87;101503.66;5110790;28;20052;-68
2023/01/07 02:06:44;;;;;;;6.43;3.20;;;;;;;11.67;72.76;101506.56;5100611;28;20044;-68
2023/01/07 02:09:13;;;;;;;7.13;2.80;;;;;;;11.67;72.96;101509.25;5104366;28;20044;-69
2023/01/07 02:11:49;;;;;;;5.03;2.40;;;;;;;11.67;72.88;101506.56;5104393;28;20044;-68
2023/01/07 02:14:36;;;;;;;4.87;2.20;;;;;;;11.66;72.88;101502.22;5101059;28;20052;-64
2023/01/07 02:17:06;;;;;;;;;;;;;;;11.65;73.07;101503.25;5104393;28;20048;-68
2023/01/07 02:20:18;;;;;;;4.70;2.25;;;;;;;11.64;73.08;101500.78;5094091;28;19935;-68
2023/01/07 02:23:27;;;;;;;5.70;2.28;;;;;;;11.64;73.21;101501.59;5104858;28;20048;-66
2023/01/07 02:26:25;;;;;;;4.45;2.20;;;;;;;11.65;72.97;101505.13;5101544;28;20040;-68
2023/01/07 02:29:15;;;;;;;5.65;2.55;;;;;;;11.64;72.86;101490.81;5098308;28;20395;-68
2023/01/07 02:32:18;;;;;;;3.42;2.22;;;;;;;11.63;73.08;101494.56;5110977;28;20048;-67
2023/01/07 02:35:00;;;;;;;4.30;2.20;;;;;;;11.63;72.83;101494.56;5106097;28;20070;-68
2023/01/07 02:37:35;;;;;;;4.47;2.58;;;;;;;11.62;72.88;101495.59;5104580;28;20048;-68
2023/01/07 02:40:11;;;;;;;3.08;2.00;;;;;;;11.61;72.82;101495.81;5097972;28;20059;-68
2023/01/07 02:42:54;;;;;;;3.78;1.83;;;;;;;11.60;73.04;101494.97;5102396;28;20068;-67
2023/01/07 02:45:29;;;;;;;4.55;2.00;;;;;;;11.61;73.00;101496.63;5105434;28;20047;-68
2023/01/07 02:48:01;;;;;;;5.45;2.20;;;;;;;11.61;73.11;101493.13;5103289;28;20044;-68
2023/01/07 02:50:29;;;;;;;3.75;2.00;;;;;;;11.60;73.03;101489.59;5102671;28;20052;-65
2023/01/07 02:52:57;;;;;;;5.88;2.00;;;;;;;11.57;72.95;101486.50;5107228;28;20044;-68
2023/01/07 02:55:39;;;;;;;3.97;2.03;;;;;;;11.59;73.04;101489.81;5107365;28;20039;-68
2023/01/07 02:58:32;;;;;;;3.63;1.90;;;;;;;11.60;72.78;101489.59;5099446;28;20055;-66
2023/01/07 03:01:17;;;;;;;2.67;1.58;;;;;;;11.61;73.17;101483.16;5103769;28;20048;-67
2023/01/07 03:04:02;;;;;;;5.07;2.13;;;;;;;11.54;73.02;101474.28;5101304;28;20149;-68
2023/01/07 03:06:48;;;;;;;3.67;2.05;;;;;;;11.60;73.43;101486.91;5105561;28;20082;-68
2023/01/07 03:09:22;;;;;;;4.22;1.83;;;;;;;11.61;73.12;101476.97;5102502;28;20065;-67
2023/01/07 03:12:00;;;;;;;2.72;1.80;;;;;;;11.61;72.89;101471.56;5085311;28;20078;-68
2023/01/07 03:14:38;;;;;;;2.70;1.80;;;;;;;11.60;72.94;101470.75;5105444;28;20115;-68
2023/01/07 03:17:09;;;;;;;3.35;1.90;;;;;;;11.61;72.76;101469.72;5105401;28;20044;-67
2023/01/07 03:19:41;;;;;;;4.43;1.70;;;;;;;11.59;72.89;101463.72;5106206;28;20115;-64
2023/01/07 03:22:11;;;;;;;4.75;2.05;;;;;;;11.61;72.74;101456.25;5105039;28;20113;-69
2023/01/07 03:24:40;;;;;;;3.65;1.85;;;;;;;11.61;72.82;101455.44;5111678;28;20135;-68
2023/01/07 03:27:09;;;;;;;5.45;2.17;;;;;;;11.60;73.24;101453.78;5109007;28;20040;-68
2023/01/07 03:29:37;;;;;;;2.70;1.98;;;;;;;11.59;72.83;101449.44;5116533;28;20603;-68
2023/01/07 03:32:10;;;;;;;4.50;1.85;;;;;;;11.59;72.78;101450.25;5107170;28;20062;-68
2023/01/07 03:34:40;;;;;;;3.25;2.05;;;;;;;11.60;72.77;101448.38;5105311;28;20056;-67
2023/01/07 03:37:11;;;;;;;2.40;1.52;;;;;;;11.50;72.85;101434.56;5118850;28;20055;-68
2023/01/07 03:39:40;;;;;;;2.65;1.90;;;;;;;11.58;72.88;101442.38;5095448;28;20055;-68
2023/01/07 03:44:55;;;;;;;3.33;1.83;;;;;;;11.55;73.01;101443.66;5101087;28;20052;-68
2023/01/07 03:47:24;;;;;;;1.80;1.48;;;;;;;11.54;72.87;101436.59;5098102;28;20057;-68
2023/01/07 03:49:54;;;;;;;2.10;1.73;;;;;;;11.55;72.93;101446.34;5104872;28;20098;-68
2023/01/07 03:52:22;;;;;;;6.88;2.08;;;;;;;11.54;72.93;101436.59;5101305;28;20059;-68
2023/01/07 03:54:49;;;;;;;7.65;1.90;;;;;;;11.55;72.87;101435.56;5103349;28;20040;-66
2023/01/07 03:57:17;;;;;;;4.32;2.45;;;;;;;11.54;72.69;101428.53;5097751;28;20044;-69
2023/01/07 03:59:45;;;;;;;3.20;1.85;;;;;;;11.55;72.70;101432.88;5115516;28;20135;-65
2023/01/07 04:02:13;;;;;;;2.95;1.27;;;;;;;11.54;73.05;101428.53;5104446;28;20131;-68
2023/01/07 04:04:41;;;;;;;4.43;1.63;;;;;;;11.54;72.88;101428.53;5112484;28;20401;-68
2023/01/07 04:07:12;;;;;;;2.75;1.70;;;;;;;11.54;72.70;101419.63;5099657;28;20048;-69
2023/01/07 04:09:40;;;;;;;3.05;2.00;;;;;;;11.54;73.01;101420.47;5108571;28;20048;-69
2023/01/07 04:12:08;;;;;;;3.22;1.70;;;;;;;11.52;72.76;101409.06;5117697;28;20052;-68
2023/01/07 04:14:36;;;;;;;10.20;2.28;;;;;;;11.52;72.79;101411.78;5101986;28;20099;-68
2023/01/07 04:17:03;;;;;;;4.63;1.80;;;;;;;11.52;72.97;101403.69;5116754;28;20055;-68
2023/01/07 04:19:32;;;;;;;4.93;1.95;;;;;;;11.53;72.98;101399.13;5112725;28;20048;-68
2023/01/07 04:22:00;;;;;;;2.38;1.52;;;;;;;11.53;72.76;101401.81;5101982;28;20045;-66
2023/01/07 04:24:29;;;;;;;4.68;1.80;;;;;;;11.53;72.61;101396.44;5105333;28;20056;-68
2023/01/07 04:26:57;;;;;;;2.42;1.63;;;;;;;11.53;72.79;101388.38;5106905;28;20075;-68
2023/01/07 04:29:25;;;;;;;3.53;1.60;;;;;;;11.52;72.76;101390.22;5108336;28;20075;-68
2023/01/07 04:31:53;;;;;;;7.30;2.17;;;;;;;11.51;72.93;101377.81;5110368;28;20044;-68
2023/01/07 04:34:21;;;;;;;5.10;2.05;;;;;;;11.52;72.59;101378.63;5101205;28;20548;-68
2023/01/07 04:36:49;;;;;;;4.85;1.63;;;;;;;11.53;72.83;101380.28;5098619;28;20100;-68
2023/01/07 04:39:17;;;;;;;4.38;2.13;;;;;;;11.46;72.92;101368.72;5113441;28;20113;-67
2023/01/07 04:41:46;;;;;;;2.67;1.40;;;;;;;11.52;72.96;101373.25;5109255;28;20068;-68
2023/01/07 04:44:16;;;;;;;3.15;1.70;;;;;;;11.52;72.79;101373.25;5110104;28;20050;-68
2023/01/07 04:46:44;;;;;;;4.07;1.70;;;;;;;11.53;72.78;101364.13;5107807;28;20369;-67
2023/01/07 04:49:12;;;;;;;3.63;1.60;;;;;;;11.52;72.88;101362.50;5107697;28;20135;-68
2023/01/07 04:51:40;;;;;;;3.60;1.77;;;;;;;11.52;72.72;101362.50;5108483;28;20069;-67
2023/01/07 04:54:08;;;;;;;5.32;1.58;;;;;;;11.51;72.65;101361.66;5099387;28;20044;-68
2023/01/07 04:56:35;;;;;;;3.35;1.70;;;;;;;11.52;72.86;101351.72;5101713;28;20183;-68
2023/01/07 04:59:05;;;;;;;2.90;1.75;;;;;;;11.51;72.91;101350.91;5099289;28;20556;-67
2023/01/07 05:01:32;;;;;;;2.47;1.23;;;;;;;11.50;73.01;101349.25;5121036;28;20056;-68
2023/01/07 05:04:01;;;;;;;2.72;1.75;;;;;;;11.50;72.78;101351.13;5101805;28;20048;-68
2023/01/07 05:06:28;;;;;;;4.43;1.63;;;;;;;11.50;72.51;101348.41;5098803;28;20093;-68
2023/01/07 05:08:56;;;;;;;3.13;1.85;;;;;;;11.50;72.88;101345.72;5099349;28;20040;-68
2023/01/07 05:11:24;;;;;;;5.65;1.58;;;;;;;11.48;72.62;101343.25;5099957;28;20045;-68
2023/01/07 05:13:52;;;;;;;4.55;1.83;;;;;;;11.48;72.50;101337.88;5102139;28;20052;-68
2023/01/07 05:16:21;;;;;;;2.20;1.50;;;;;;;11.46;72.91;101334.56;5103822;28;20119;-68
2023/01/07 05:18:49;;;;;;;3.20;1.52;;;;;;;11.48;72.88;101337.03;5104335;28;20059;-68
2023/01/07 05:21:17;;;;;;;2.13;1.48;;;;;;;11.47;72.57;101335.41;5110443;28;20047;-68
2023/01/07 05:23:46;;;;;;;2.20;1.38;;;;;;;11.47;72.45;101333.53;5107768;28;20054;-68
2023/01/07 05:26:13;;;;;;;4.10;2.08;;;;;;;11.47;72.88;101333.53;5099717;28;20050;-68
2023/01/07 05:28:41;;;;;;;2.65;1.27;;;;;;;11.47;72.88;101321.94;5102138;28;20079;-68
2023/01/07 05:31:09;;;;;;;4.80;1.70;;;;;;;11.47;72.70;101330.00;5102266;28;20115;-69
2023/01/07 05:33:38;;;;;;;3.63;1.38;;;;;;;11.47;72.50;101330.84;5104282;28;20138;-69
2023/01/07 05:36:07;;;;;;;3.75;1.40;;;;;;;11.47;72.71;101320.06;5103115;28;20119;-69
2023/01/07 05:38:35;;;;;;;3.55;1.40;;;;;;;11.47;72.35;101313.88;5103625;28;20216;-68
2023/01/07 05:41:03;;;;;;;2.65;1.13;;;;;;;11.47;72.35;101321.94;5106635;28;20079;-68
2023/01/07 05:43:31;;;;;;;3.20;1.58;;;;;;;11.47;72.30;101319.25;5105421;28;20083;-68
2023/01/07 05:45:59;;;;;;;1.58;1.20;;;;;;;11.37;72.54;101309.78;5102117;28;20104;-68
2023/01/07 05:48:27;;;;;;;3.72;1.40;;;;;;;11.48;72.28;101326.28;5099677;28;20052;-68
2023/01/07 05:50:56;;;;;;;4.65;1.70;;;;;;;11.46;72.38;101321.13;5099710;28;20166;-68
2023/01/07 05:53:24;;;;;;;3.50;1.80;;;;;;;11.44;72.18;101323.19;5103540;28;20047;-68
2023/01/07 05:55:55;;;;;;;4.78;1.35;;;;;;;11.46;72.13;101320.28;5105862;28;20078;-67
2023/01/07 05:58:23;;;;;;;4.07;1.40;;;;;;;11.45;72.28;101321.31;5105936;28;20067;-68
2023/01/07 06:00:55;;;;;;;3.63;1.35;;;;;;;11.47;72.37;101313.88;4868754;28;10001082;-67
2023/01/07 06:03:23;;;;;;;2.08;1.17;;;;;;;11.45;71.97;101311.38;4740497;28;10000232;-67
2023/01/07 06:05:51;;;;;;;1.90;1.30;;;;;;;11.45;72.22;101307.88;5097525;28;20054;-67
2023/01/07 06:08:20;;;;;;;2.13;1.30;;;;;;;11.45;72.04;101307.88;5097684;28;20171;-68
2023/01/07 06:10:48;;;;;;;3.50;1.65;;;;;;;11.43;71.91;101308.09;5098523;28;20052;-67
2023/01/07 06:13:16;;;;;;;2.47;1.42;;;;;;;11.43;72.08;101305.41;5097761;28;20049;-66
2023/01/07 06:15:43;;;;;;;1.85;1.20;;;;;;;11.43;72.02;101304.56;5093614;28;20050;-68
2023/01/07 06:18:11;;;;;;;2.30;1.35;;;;;;;11.44;72.17;101298.16;5100168;28;20534;-67
2023/01/07 06:20:39;;;;;;;3.03;1.48;;;;;;;11.45;72.05;101297.09;5100984;28;20044;-65
2023/01/07 06:23:09;;;;;;;1.83;1.20;;;;;;;11.45;71.96;101297.09;5101305;28;20075;-68
2023/01/07 06:25:38;;;;;;;2.20;1.38;;;;;;;11.44;71.87;101285.50;5106980;28;20090;-66
2023/01/07 06:28:06;;;;;;;1.70;1.33;;;;;;;11.44;71.81;101276.63;5102539;28;20139;-66
2023/01/07 06:30:33;;;;;;;1.17;0.93;;;;;;;11.31;72.14;101261.38;5108552;28;20390;-67
2023/01/07 06:33:01;;;;;;;4.47;1.20;;;;;;;11.46;72.06;101277.22;5105229;28;20127;-66
2023/01/07 06:35:29;;;;;;;1.83;1.20;;;;;;;11.44;72.01;101280.13;5105069;28;20108;-66
2023/01/07 06:37:57;;;;;;;2.92;1.38;;;;;;;11.45;71.96;101267.50;5100013;28;20076;-66
2023/01/07 06:40:25;;;;;;;2.08;1.10;;;;;;;11.43;71.72;101265.03;5099195;28;20054;-67
2023/01/07 06:42:54;;;;;;;2.25;1.10;;;;;;;11.42;71.97;101258.00;5108151;28;20055;-67
2023/01/07 06:45:22;;;;;;;3.40;1.27;;;;;;;11.42;71.80;101258.00;5104708;28;20040;-67
2023/01/07 06:47:49;;;;;;;2.47;1.23;;;;;;;11.40;71.90;101263.59;5099564;28;20107;-70
2023/01/07 06:50:17;;;;;;;3.88;1.23;;;;;;;11.40;71.72;101252.81;5103667;28;20060;-68
2023/01/07 06:52:45;;;;;;;1.40;1.00;;;;;;;11.40;72.14;101254.69;5100337;28;20047;-67
2023/01/07 06:55:13;;;;;;;2.80;1.25;;;;;;;11.40;71.70;101254.69;5111240;28;20139;-66
2023/01/07 06:57:41;;;;;;;3.55;1.17;;;;;;;11.40;71.72;101249.31;5101263;28;20051;-66
2023/01/07 07:00:12;;;;;;;2.13;1.00;;;;;;;11.39;71.54;101247.66;5101492;28;20079;-67
2023/01/07 07:02:40;;;;;;;1.77;1.30;;;;;;;11.39;71.59;101245.78;5102774;28;20070;-62
2023/01/07 07:05:08;;;;;;;2.75;1.20;;;;;;;11.38;71.58;101246.84;5103296;28;20052;-65
2023/01/07 07:07:36;;;;;;;1.65;1.33;;;;;;;11.39;71.67;101244.97;5101159;28;20047;-67
2023/01/07 07:10:06;;;;;;;1.42;0.90;;;;;;;11.37;71.45;101253.25;5103378;28;20076;-64
2023/01/07 07:12:34;;;;;;;3.45;1.27;;;;;;;11.37;71.33;101247.06;5102319;28;20047;-68
2023/01/07 07:15:02;;;;;;;2.42;1.23;;;;;;;11.36;71.53;101237.34;5102655;28;20364;-67
2023/01/07 07:17:31;;;;;;;1.20;1.10;;;;;;;11.35;71.57;101241.88;5101340;28;20048;-65
2023/01/07 07:20:00;;;;;;;1.60;1.00;;;;;;;11.36;71.43;101245.41;5108749;28;20609;-66
2023/01/07 07:22:28;;;;;;;1.25;1.02;;;;;;;11.34;71.56;101234.84;5104960;28;20060;-69
2023/01/07 07:24:56;;;;;;;3.72;1.13;;;;;;;11.34;71.64;101234.03;5105728;28;20047;-67
2023/01/07 07:27:24;;;;;;;1.15;0.93;;;;;;;11.34;71.50;101226.78;5094153;28;20044;-67
2023/01/07 07:29:51;;;;;;;2.15;1.13;;;;;;;11.35;71.71;101223.06;5100522;28;20146;-67
2023/01/07 07:32:19;;;;;;;1.85;1.20;;;;;;;11.34;71.56;101210.63;5099021;28;20040;-67
2023/01/07 07:34:48;;;;;;;1.75;1.10;;;;;;;11.35;71.54;101217.66;5100213;28;20460;-67
2023/01/07 07:37:16;;;;;;;7.25;1.52;;;;;;;11.37;71.40;101217.44;5107458;28;20051;-65
2023/01/07 07:39:44;;;;;;;2.35;0.95;;;;;;;11.30;71.17;101220.19;5102085;28;20048;-67
2023/01/07 07:42:12;;;;;;;3.50;1.08;;;;;;;11.32;71.63;101210.03;5099797;28;20070;-63
2023/01/07 07:44:40;;;;;;;2.05;1.40;;;;;;;11.37;71.75;101209.38;5100776;28;20083;-70
2023/01/07 07:47:09;;;;;;;2.58;1.13;;;;;;;11.40;71.24;101203.56;5100959;28;20047;-69
2023/01/07 07:49:36;;;;;;;1.75;1.10;;;;;;;11.41;71.30;101215.97;5101187;28;20055;-68
2023/01/07 07:52:06;;;;;;;6.85;1.92;;;;;;;11.43;71.23;101207.69;5107000;28;20048;-66
2023/01/07 07:54:34;;;;;;;1.85;0.90;;;;;;;11.45;71.11;101203.72;5102122;28;20052;-69
2023/01/07 07:57:02;;;;;;;1.63;0.98;;;;;;;11.42;71.50;101204.16;5101525;28;20075;-69
2023/01/07 07:59:30;;;;;;;2.75;1.00;;;;;;;11.33;71.39;101187.47;5103672;28;20529;-69
2023/01/07 08:01:58;;;;;;;2.38;1.02;;;;;;;11.43;71.09;101200.44;5107914;28;20676;-67
2023/01/07 08:04:27;;;;;;;1.30;0.98;;;;;;;11.46;71.31;101199.16;5102736;28;20052;-69
2023/01/07 08:06:55;;;;;;;2.20;1.35;;;;;;;11.49;71.21;101194.19;5103782;28;20107;-69
2023/01/07 08:09:25;;;;;;;5.72;1.20;;;;;;;11.52;71.33;101179.47;5101797;28;20044;-69
2023/01/07 08:11:52;;;;;;;2.28;0.90;;;;;;;11.50;71.02;101179.69;5111922;28;20044;-69
2023/01/07 08:14:20;;;;;;;3.13;1.30;;;;;;;11.53;71.24;101173.84;5101765;28;20052;-68
2023/01/07 08:16:48;;;;;;;2.90;1.30;;;;;;;11.53;70.72;101179.22;5100382;28;20056;-69
2023/01/07 08:19:16;;;;;;;1.95;1.10;;;;;;;11.54;70.74;101180.06;5101397;28;20123;-67
2023/01/07 08:21:44;;;;;;;2.15;1.13;;;;;;;11.50;70.78;101182.38;5102917;28;20082;-70
2023/01/07 08:24:12;;;;;;;1.25;1.00;;;;;;;11.50;71.29;101176.16;5103886;28;20051;-67
2023/01/07 08:26:41;;;;;;;1.70;1.15;;;;;;;11.47;70.78;101173.91;5102288;28;20052;-69
2023/01/07 08:29:09;;;;;;;4.38;1.10;;;;;;;11.48;71.45;101175.56;5099391;28;20071;-69
2023/01/07 08:31:37;;;;;;;1.63;1.00;;;;;;;11.50;71.11;101173.47;5106013;28;20055;-71
2023/01/07 08:34:04;;;;;;;1.10;0.98;;;;;;;11.49;71.21;101169.94;5110055;28;20059;-68
2023/01/07 08:36:32;;;;;;;2.97;0.98;;;;;;;11.46;71.12;101165.00;5102025;28;20047;-71
2023/01/07 08:39:00;;;;;;;1.85;1.20;;;;;;;11.40;71.43;101155.13;5101322;28;20194;-70
2023/01/07 08:41:28;;;;;;;3.03;0.90;;;;;;;11.46;71.10;101165.00;5103454;28;20059;-70
2023/01/07 08:43:57;;;;;;;1.30;1.20;;;;;;;11.44;71.13;101158.19;5096889;28;20051;-71
2023/01/07 08:46:25;;;;;;;3.25;1.23;;;;;;;11.37;71.28;101139.41;5087884;28;20052;-69
2023/01/07 08:48:53;;;;;;;2.72;1.10;;;;;;;11.47;71.56;101153.19;5100948;28;20040;-68
2023/01/07 08:51:21;;;;;;;1.83;1.10;;;;;;;11.45;70.86;101149.06;5101527;28;20044;-72
2023/01/07 08:53:49;;;;;;;1.98;1.23;;;;;;;11.45;71.27;101151.78;5106106;28;20084;-71
2023/01/07 08:56:17;;;;;;;4.47;1.00;;;;;;;11.44;71.01;101150.94;5102535;28;20075;-70
2023/01/07 08:58:45;;;;;;;2.10;1.13;;;;;;;11.45;71.24;101149.06;5091314;28;20131;-71
2023/01/07 09:01:14;;;;;;;1.45;0.90;;;;;;;11.47;71.31;101150.50;5100935;28;20047;-70
2023/01/07 09:03:42;;;;;;;0.90;0.82;;;;;;;11.48;71.42;101152.16;5095395;28;20055;-71
2023/01/07 09:06:10;;;;;;;1.65;1.02;;;;;;;11.50;70.67;101151.94;5099652;28;20047;-70
2023/01/07 09:08:39;;;;;;;2.85;1.15;;;;;;;11.48;70.69;101151.34;5102246;28;20090;-68
2023/01/07 09:11:07;;;;;;;1.92;0.98;;;;;;;11.46;70.91;101138.09;5100932;28;20099;-63
2023/01/07 09:13:34;;;;;;;3.80;1.20;;;;;;;11.31;70.91;101126.84;5102011;28;20059;-69
2023/01/07 09:16:02;;;;;;;6.20;1.25;;;;;;;11.39;70.82;101137.31;5100634;28;20059;-68
2023/01/07 09:18:32;;;;;;;1.70;1.10;;;;;;;11.42;70.90;101139.56;5097442;28;20064;-67
2023/01/07 09:21:00;;;;;;;1.38;0.95;;;;;;;11.45;71.29;101127.56;5097230;28;20063;-69
2023/01/07 09:23:28;;;;;;;1.83;1.00;;;;;;;11.51;71.02;101123.97;5101355;28;20048;-68
2023/01/07 09:25:56;;;;;;;2.15;1.02;;;;;;;11.51;70.34;101121.28;5102355;28;20732;-68
2023/01/07 09:28:24;;;;;;;3.65;0.90;;;;;;;11.50;70.47;101120.47;5104848;28;20052;-66
2023/01/07 09:30:51;;;;;;;1.98;1.13;;;;;;;11.49;70.70;101124.19;5094918;28;20078;-67
2023/01/07 09:33:22;;;;;;;2.63;1.00;;;;;;;11.50;70.74;101115.06;5100429;28;20149;-64
2023/01/07 09:35:51;;;;;;;2.10;1.23;;;;;;;11.60;71.21;101112.69;5099217;28;20138;-65
2023/01/07 09:38:19;;;;;;;1.25;1.00;;;;;;;11.65;70.62;101112.03;5103101;28;20047;-67
2023/01/07 09:40:47;;;;;;;6.00;1.42;;;;;;;11.62;71.21;101110.63;5098221;28;20139;-67
2023/01/07 09:43:21;;;;;;;5.13;0.90;;;;;;;11.64;70.59;101107.69;5100463;28;20131;-67
2023/01/07 09:45:52;;;;;;;5.82;1.13;;;;;;;11.62;69.65;101104.41;5098111;28;20048;-69
2023/01/07 09:48:24;;;;;;;3.22;1.42;;;;;;;11.65;70.50;101098.56;5107352;28;20052;-67
2023/01/07 09:51:00;;;;;;;0.90;0.80;;;;;;;11.62;70.21;101094.47;5100353;28;20103;-61
2023/01/07 09:53:33;;;;;;;4.20;1.27;;;;;;;11.60;70.04;101096.56;5107553;28;20486;-67
2023/01/07 09:56:04;;;;;;;1.10;0.80;;;;;;;11.60;70.51;101087.66;5104512;28;20054;-66
2023/01/07 09:58:41;;;;;;;1.83;1.00;;;;;;;11.62;70.53;101089.06;5102999;28;20062;-67
2023/01/07 10:01:23;;;;;;;1.42;1.00;;;;;;;11.66;70.79;101079.50;5103137;28;20064;-66
2023/01/07 10:04:00;;;;;;;2.63;0.98;;;;;;;11.77;71.31;101072.59;5103578;28;20079;-66
2023/01/07 10:06:39;;;;;;;1.35;1.25;;;;;;;11.87;69.86;101072.06;5098699;28;20127;-67
2023/01/07 10:09:22;;;;;;;2.60;0.82;;;;;;;11.71;69.83;101060.00;5089350;28;20633;-68
2023/01/07 10:11:59;;;;;;;2.63;1.33;;;;;;;12.31;72.01;101063.59;5103003;28;20319;-68
2023/01/07 10:14:48;;;;;;;1.55;0.93;;;;;;;12.01;69.32;101060.09;5097443;28;20052;-66
2023/01/07 10:17:28;;;;;;;3.25;1.40;;;;;;;11.96;70.86;101052.69;5092146;28;20128;-67
2023/01/07 10:20:01;;;;;;;3.70;1.98;;;;;;;12.17;71.28;101043.28;5097718;28;20104;-65
2023/01/07 10:22:34;;;;;;;2.53;1.25;;;;;;;11.95;69.54;101034.88;5104637;28;20062;-67
2023/01/07 10:25:12;;;;;;;2.63;1.40;;;;;;;11.85;70.19;101036.47;5103947;28;20120;-67
2023/01/07 10:27:45;;;;;;;3.50;0.93;;;;;;;11.88;71.12;101027.94;5098622;28;20048;-67
2023/01/07 10:30:18;;;;;;;3.72;0.80;;;;;;;12.11;70.99;101017.28;5109327;28;20087;-67
2023/01/07 10:32:48;;;;;;;4.90;1.05;;;;;;;11.96;70.37;101023.06;5106363;28;20046;-66
2023/01/07 10:35:20;;;;;;;1.17;0.90;;;;;;;12.11;71.25;101003.81;5106150;28;20047;-67
2023/01/07 10:37:49;;;;;;;5.53;0.80;;;;;;;12.20;69.32;101002.41;5098811;28;20059;-67
2023/01/07 10:40:28;;;;;;;1.63;0.93;;;;;;;12.53;69.06;100999.22;5103624;28;20067;-68
2023/01/07 10:43:00;;;;;;;1.70;0.80;;;;;;;12.25;70.02;100988.25;5101391;28;20425;-70
2023/01/07 10:45:55;;;;;;;1.67;0.95;;;;;;;12.22;68.67;100980.63;5106703;28;20131;-68
2023/01/07 10:48:53;;;;;;;3.95;0.90;;;;;;;12.06;69.19;100974.03;5104388;28;20039;-67
2023/01/07 10:51:40;;;;;;;2.65;1.17;;;;;;;11.97;69.85;100975.41;5061887;28;20131;-67
2023/01/07 10:54:25;;;;;;;1.17;0.90;;;;;;;11.90;70.00;100978.19;5106682;28;20067;-67
2023/01/07 10:56:57;;;;;;;1.52;0.98;;;;;;;11.77;70.03;100945.19;5101619;28;20074;-67
2023/01/07 10:59:25;;;;;;;1.10;0.90;;;;;;;11.83;70.10;100953.22;5104808;28;20654;-68
2023/01/07 11:01:56;;;;;;;1.27;0.95;;;;;;;11.82;69.16;100956.13;5104045;28;20043;-68
2023/01/07 11:04:25;;;;;;;1.27;0.85;;;;;;;11.80;69.37;100950.16;5101520;28;20044;-68
2023/01/07 11:06:58;;;;;;;1.40;0.93;;;;;;;11.79;69.38;100945.81;5105199;28;20047;-68
2023/01/07 11:09:30;;;;;;;1.48;0.90;;;;;;;11.77;69.72;100943.34;5105782;28;20047;-68
2023/01/07 11:12:01;;;;;;;2.00;0.88;;;;;;;11.77;69.60;100934.41;5111781;28;20040;-68
2023/01/07 11:14:34;;;;;;;1.63;1.08;;;;;;;11.78;69.61;100939.59;5110245;28;20086;-67
2023/01/07 11:17:10;;;;;;;1.42;1.08;;;;;;;11.78;69.75;100941.47;5106499;28;20056;-67
2023/01/07 11:19:44;;;;;;;2.42;1.10;;;;;;;11.77;69.74;100935.28;5092116;28;20065;-63
2023/01/07 11:22:29;;;;;;;2.03;0.88;;;;;;;11.78;69.77;100930.69;5101453;28;20081;-67
2023/01/07 11:24:59;;;;;;;2.15;0.77;;;;;;;11.77;69.50;100929.03;5105744;28;20048;-67
2023/01/07 11:27:29;;;;;;;1.50;0.90;;;;;;;11.78;69.79;100922.63;5106514;28;20051;-68
2023/01/07 11:30:00;;;;;;;1.60;0.90;;;;;;;11.77;69.27;100913.72;5108575;28;20051;-67
2023/01/07 11:32:30;;;;;;;1.90;0.82;;;;;;;11.75;69.45;100896.94;5103436;28;20083;-67
2023/01/07 11:35:00;;;;;;;2.08;1.23;;;;;;;11.78;69.58;100901.09;4751964;28;10000381;-69
2023/01/07 11:37:34;;;;;;;1.15;0.80;;;;;;;11.77;69.66;100894.03;5102133;28;20115;-68
2023/01/07 11:40:22;;;;;;;4.38;1.08;;;;;;;11.78;69.91;100887.63;5102931;28;20078;-68
2023/01/07 11:42:53;;;;;;;3.13;0.93;;;;;;;11.78;69.81;100883.06;5095776;28;20466;-67
2023/01/07 11:45:23;;;;;;;1.13;1.02;;;;;;;11.77;70.01;100876.03;5100463;28;20091;-68